createdAt,value
2017-04-27T00:01:39.292Z,4.32
2017-04-27T00:04:06.808Z,3.92
2017-04-27T00:06:34.230Z,3.45
2017-04-27T00:09:01.664Z,3.47
2017-04-27T00:11:29.099Z,3.60
2017-04-27T00:13:56.491Z,4.07
2017-04-27T00:16:23.943Z,4.53
2017-04-27T00:18:51.398Z,4.42
2017-04-27T00:21:18.839Z,4.40
2017-04-27T00:23:46.276Z,4.45
2017-04-27T00:26:13.738Z,4.58
2017-04-27T00:28:41.799Z,3.85
2017-04-27T00:31:09.195Z,4.80
2017-04-27T00:33:36.639Z,5.87
2017-04-27T00:36:04.112Z,4.38
2017-04-27T00:38:31.534Z,4.72
2017-04-27T00:40:58.999Z,4.90
2017-04-27T00:43:26.422Z,4.38
2017-04-27T00:45:53.851Z,4.77
2017-04-27T00:48:21.311Z,4.77
2017-04-27T00:50:48.719Z,5.30
2017-04-27T00:53:16.136Z,5.08
2017-04-27T00:55:44.323Z,5.42
2017-04-27T00:58:12.426Z,4.87
2017-04-27T01:00:39.855Z,4.90
2017-04-27T01:03:07.303Z,4.40
2017-04-27T01:05:34.738Z,4.87
2017-04-27T01:08:02.173Z,5.02
2017-04-27T01:10:29.681Z,5.52
2017-04-27T01:12:57.844Z,6.13
2017-04-27T01:15:25.275Z,5.70
2017-04-27T01:17:52.751Z,4.78
2017-04-27T01:20:20.203Z,5.17
2017-04-27T01:22:47.627Z,6.05
2017-04-27T01:25:15.115Z,5.98
2017-04-27T01:27:42.951Z,6.18
2017-04-27T01:30:10.375Z,6.22
2017-04-27T01:32:37.807Z,5.70
2017-04-27T01:35:05.219Z,5.63
2017-04-27T01:37:32.683Z,5.97
2017-04-27T01:40:00.135Z,5.60
2017-04-27T01:42:27.551Z,5.73
2017-04-27T01:44:54.968Z,5.72
2017-04-27T01:47:23.174Z,6.18
2017-04-27T01:49:50.596Z,6.17
2017-04-27T01:52:18.011Z,5.58
2017-04-27T01:54:45.471Z,5.90
2017-04-27T01:57:12.899Z,6.35
2017-04-27T01:59:40.331Z,5.67
2017-04-27T02:02:08.546Z,6.92
2017-04-27T02:04:35.979Z,5.23
2017-04-27T02:07:03.434Z,5.12
2017-04-27T02:09:31.171Z,4.87
2017-04-27T02:11:58.578Z,5.78
2017-04-27T02:14:26.003Z,6.23
2017-04-27T02:16:54.175Z,5.62
2017-04-27T02:19:21.607Z,4.87
2017-04-27T02:21:49.051Z,5.30
2017-04-27T02:24:16.491Z,5.92
2017-04-27T02:26:43.922Z,6.18
2017-04-27T02:29:11.804Z,6.58
2017-04-27T02:31:39.243Z,5.77
2017-04-27T02:34:06.667Z,5.52
2017-04-27T02:36:34.083Z,5.70
2017-04-27T02:39:02.317Z,6.45
2017-04-27T02:41:29.771Z,5.88
2017-04-27T02:43:57.183Z,5.55
2017-04-27T02:46:24.639Z,7.13
2017-04-27T02:48:52.077Z,7.62
2017-04-27T02:51:19.519Z,6.95
2017-04-27T02:53:46.984Z,6.80
2017-04-27T02:56:15.163Z,7.60
2017-04-27T02:58:43.407Z,7.15
2017-04-27T03:01:12.561Z,8.07
2017-04-27T03:03:39.966Z,6.93
2017-04-27T03:06:07.408Z,7.28
2017-04-27T03:08:34.867Z,6.88
2017-04-27T03:11:02.303Z,7.92
2017-04-27T03:13:29.747Z,7.87
2017-04-27T03:15:57.204Z,7.78
2017-04-27T03:18:24.618Z,7.83
2017-04-27T03:20:52.048Z,8.38
2017-04-27T03:23:19.483Z,8.88
2017-04-27T03:25:46.899Z,9.05
2017-04-27T03:28:15.067Z,9.13
2017-04-27T03:30:43.439Z,7.02
2017-04-27T03:33:10.872Z,7.63
2017-04-27T03:35:38.303Z,9.17
2017-04-27T03:38:05.755Z,8.57
2017-04-27T03:40:33.215Z,8.57
2017-04-27T03:43:00.651Z,10.13
2017-04-27T03:45:28.114Z,8.37
2017-04-27T03:47:55.535Z,9.22
2017-04-27T03:50:22.970Z,9.87
2017-04-27T03:52:50.410Z,10.43
2017-04-27T03:55:17.835Z,9.98
2017-04-27T03:57:45.266Z,9.95
2017-04-27T04:00:13.351Z,11.12
2017-04-27T04:02:40.772Z,9.08
2017-04-27T04:05:08.194Z,10.37
2017-04-27T04:07:36.364Z,10.42
2017-04-27T04:10:03.803Z,9.65
2017-04-27T04:12:31.216Z,9.62
2017-04-27T04:14:58.699Z,10.73
2017-04-27T04:17:26.131Z,9.78
2017-04-27T04:19:53.540Z,10.20
2017-04-27T04:22:20.991Z,10.48
2017-04-27T04:24:49.147Z,9.42
2017-04-27T04:27:17.357Z,10.05
2017-04-27T04:29:44.809Z,11.18
2017-04-27T04:32:12.975Z,12.20
2017-04-27T04:34:40.411Z,10.98
2017-04-27T04:37:07.871Z,11.52
2017-04-27T04:39:35.291Z,11.98
2017-04-27T04:42:02.734Z,10.85
2017-04-27T04:44:30.174Z,11.10
2017-04-27T04:46:57.615Z,10.28
2017-04-27T04:49:25.027Z,9.85
2017-04-27T04:51:52.479Z,11.47
2017-04-27T04:54:19.906Z,9.93
2017-04-27T04:56:47.328Z,9.45
2017-04-27T04:59:14.783Z,9.50
2017-04-27T05:01:43.235Z,9.80
2017-04-27T05:04:10.663Z,10.80
2017-04-27T05:06:38.140Z,12.25
2017-04-27T05:09:05.596Z,12.73
2017-04-27T05:11:33.026Z,11.32
2017-04-27T05:14:00.502Z,12.50
2017-04-27T05:16:27.910Z,13.58
2017-04-27T05:18:55.355Z,11.17
2017-04-27T05:21:22.795Z,12.02
2017-04-27T05:23:50.210Z,12.00
2017-04-27T05:26:17.611Z,12.17
2017-04-27T05:28:45.084Z,13.12
2017-04-27T05:31:13.424Z,12.53
2017-04-27T05:33:41.578Z,12.72
2017-04-27T05:36:09.095Z,13.73
2017-04-27T05:38:36.555Z,13.62
2017-04-27T05:41:04.039Z,14.52
2017-04-27T05:43:31.562Z,15.03
2017-04-27T05:45:59.044Z,13.55
2017-04-27T05:48:26.463Z,13.27
2017-04-27T05:50:53.903Z,12.17
2017-04-27T05:53:21.344Z,13.82
2017-04-27T05:55:48.751Z,15.57
2017-04-27T05:58:16.220Z,13.58
2017-04-27T06:00:43.668Z,14.78
2017-04-27T06:03:11.111Z,13.68
2017-04-27T06:05:38.628Z,13.65
2017-04-27T06:08:06.167Z,12.03
2017-04-27T06:10:34.487Z,13.45
2017-04-27T06:13:02.023Z,12.30
2017-04-27T06:15:29.595Z,12.92
2017-04-27T06:17:57.104Z,13.42
2017-04-27T06:20:24.676Z,13.02
2017-04-27T06:22:52.196Z,13.53
2017-04-27T06:25:19.731Z,12.48
2017-04-27T06:27:47.290Z,12.87
2017-04-27T06:30:14.833Z,12.28
2017-04-27T06:32:42.658Z,11.42
2017-04-27T06:35:10.247Z,11.95
2017-04-27T06:37:37.792Z,12.57
2017-04-27T06:40:05.339Z,15.65
2017-04-27T06:42:32.875Z,15.33
2017-04-27T06:45:00.419Z,13.43
2017-04-27T06:47:28.665Z,13.08
2017-04-27T06:49:56.225Z,11.82
2017-04-27T06:52:24.513Z,13.40
2017-04-27T06:54:52.041Z,14.15
2017-04-27T06:57:20.364Z,12.82
2017-04-27T06:59:47.864Z,13.47
2017-04-27T07:02:15.356Z,13.25
2017-04-27T07:04:42.832Z,12.63
2017-04-27T07:07:11.016Z,12.73
2017-04-27T07:09:38.479Z,13.08
2017-04-27T07:12:05.951Z,12.70
2017-04-27T07:14:33.379Z,12.63
2017-04-27T07:17:00.912Z,11.85
2017-04-27T07:19:28.384Z,10.57
2017-04-27T07:21:55.807Z,11.90
2017-04-27T07:24:23.218Z,11.48
2017-04-27T07:28:10.372Z,11.42
2017-04-27T07:30:38.555Z,12.62
2017-04-27T07:33:05.983Z,11.05
2017-04-27T07:35:34.201Z,11.76
2017-04-27T07:38:01.635Z,10.00
2017-04-27T07:40:29.071Z,10.24
2017-04-27T07:42:56.541Z,10.78
2017-04-27T07:45:23.987Z,9.20
2017-04-27T07:47:51.414Z,10.26
2017-04-27T07:50:18.859Z,8.30
2017-04-27T07:52:46.302Z,9.64
2017-04-27T07:55:13.859Z,7.52
2017-04-27T07:57:42.479Z,9.14
2017-04-27T08:00:10.016Z,8.72
2017-04-27T08:02:37.637Z,8.98
2017-04-27T08:05:05.237Z,8.80
2017-04-27T08:07:32.856Z,8.44
2017-04-27T08:10:00.503Z,8.40
2017-04-27T08:12:28.024Z,7.76
2017-04-27T08:14:55.548Z,9.32
2017-04-27T08:17:23.071Z,8.46
2017-04-27T08:19:51.372Z,8.86
2017-04-27T08:22:18.935Z,7.36
2017-04-27T08:24:46.533Z,7.44
2017-04-27T08:27:14.184Z,6.92
2017-04-27T08:29:42.758Z,7.48
2017-04-27T08:32:10.276Z,6.70
2017-04-27T08:34:38.596Z,6.44
2017-04-27T08:37:06.157Z,6.10
2017-04-27T08:39:33.701Z,6.64
2017-04-27T08:42:01.280Z,6.74
2017-04-27T08:44:28.860Z,6.88
2017-04-27T08:46:56.419Z,7.20
2017-04-27T08:49:23.994Z,7.18
2017-04-27T08:51:51.592Z,6.38
2017-04-27T08:54:19.157Z,5.42
2017-04-27T08:56:47.068Z,6.14
2017-04-27T08:59:14.704Z,7.30
2017-04-27T09:01:42.612Z,6.87
2017-04-27T09:04:10.246Z,7.43
2017-04-27T09:06:37.856Z,7.35
2017-04-27T09:09:05.487Z,8.54
2017-04-27T09:11:33.084Z,7.94
2017-04-27T09:14:00.753Z,7.47
2017-04-27T09:16:29.043Z,6.90
2017-04-27T09:18:56.558Z,6.60
2017-04-27T09:21:24.878Z,7.13
2017-04-27T09:23:52.504Z,7.34
2017-04-27T09:26:20.176Z,7.86
2017-04-27T09:28:47.778Z,6.46
2017-04-27T09:31:15.397Z,7.90
2017-04-27T09:33:42.999Z,6.25
2017-04-27T09:36:10.623Z,5.93
2017-04-27T09:38:38.257Z,6.72
2017-04-27T09:41:05.824Z,6.75
2017-04-27T09:43:33.488Z,6.73
2017-04-27T09:46:01.144Z,6.72
2017-04-27T09:48:28.755Z,6.10
2017-04-27T09:50:56.364Z,5.70
2017-04-27T09:53:24.678Z,5.25
2017-04-27T09:55:52.264Z,5.72
2017-04-27T09:58:20.684Z,5.38
2017-04-27T10:00:48.273Z,5.68
2017-04-27T10:03:16.635Z,5.53
2017-04-27T10:05:45.028Z,4.85
2017-04-27T10:08:12.883Z,4.68
2017-04-27T10:10:40.490Z,4.70
2017-04-27T10:13:08.097Z,4.90
2017-04-27T10:15:35.724Z,5.27
2017-04-27T10:18:03.309Z,5.05
2017-04-27T10:20:30.980Z,4.80
2017-04-27T10:22:59.243Z,5.23
2017-04-27T10:25:27.519Z,4.10
2017-04-27T10:27:55.104Z,5.57
2017-04-27T10:30:22.663Z,4.22
2017-04-27T10:32:50.196Z,4.82
2017-04-27T10:35:17.788Z,4.65
2017-04-27T10:37:45.376Z,4.90
2017-04-27T10:40:12.996Z,5.37
2017-04-27T10:42:40.808Z,4.13
2017-04-27T10:45:09.276Z,5.23
2017-04-27T10:47:37.696Z,4.38
2017-04-27T10:50:05.344Z,4.18
2017-04-27T10:52:33.161Z,4.60
2017-04-27T10:55:00.752Z,3.82
2017-04-27T10:57:28.324Z,4.30
2017-04-27T10:59:55.912Z,3.40
2017-04-27T11:02:23.528Z,4.44
2017-04-27T11:04:51.428Z,3.76
2017-04-27T11:07:19.160Z,3.42
2017-04-27T11:09:47.139Z,4.12
2017-04-27T11:12:15.554Z,3.76
2017-04-27T11:14:43.092Z,4.42
2017-04-27T11:17:10.635Z,4.68
2017-04-27T11:19:38.220Z,4.82
2017-04-27T11:22:05.933Z,4.00
2017-04-27T11:24:33.564Z,4.48
2017-04-27T11:27:01.212Z,3.76
2017-04-27T11:29:29.020Z,3.58
2017-04-27T11:31:56.560Z,4.22
2017-04-27T11:34:24.145Z,3.73
2017-04-27T11:36:52.449Z,3.60
2017-04-27T11:39:20.101Z,3.40
2017-04-27T11:41:47.675Z,3.57
2017-04-27T11:44:16.061Z,3.63
2017-04-27T11:46:43.685Z,3.40
2017-04-27T11:49:13.072Z,3.02
2017-04-27T11:51:42.112Z,2.70
2017-04-27T11:54:09.696Z,2.80
2017-04-27T11:56:37.293Z,2.70
2017-04-27T11:59:04.928Z,2.82
2017-04-27T12:01:33.196Z,2.75
2017-04-27T12:04:00.803Z,3.02
2017-04-27T12:06:28.429Z,2.82
2017-04-27T12:08:55.997Z,2.64
2017-04-27T12:11:23.580Z,3.24
2017-04-27T12:13:51.127Z,2.78
2017-04-27T12:16:18.716Z,2.70
2017-04-27T12:18:46.320Z,3.68
2017-04-27T12:21:13.924Z,3.48
2017-04-27T12:23:42.080Z,2.92
2017-04-27T12:26:09.706Z,2.98
2017-04-27T12:28:38.061Z,3.12
2017-04-27T12:31:06.417Z,2.34
2017-04-27T12:33:34.804Z,3.28
2017-04-27T12:36:03.167Z,3.26
2017-04-27T12:38:30.804Z,2.58
2017-04-27T12:40:59.147Z,3.32
2017-04-27T12:43:26.718Z,2.98
2017-04-27T12:45:54.289Z,2.62
2017-04-27T12:48:21.944Z,2.54
2017-04-27T12:50:49.567Z,2.50
2017-04-27T12:53:17.103Z,2.80
2017-04-27T12:55:44.764Z,2.88
2017-04-27T12:58:12.731Z,2.60
2017-04-27T13:00:40.327Z,2.56
2017-04-27T13:03:07.896Z,3.23
2017-04-27T13:05:35.480Z,2.82
2017-04-27T13:08:03.088Z,2.74
2017-04-27T13:10:30.724Z,2.67
2017-04-27T13:12:58.314Z,2.52
2017-04-27T13:15:25.932Z,3.10
2017-04-27T13:17:53.488Z,2.68
2017-04-27T13:20:21.152Z,2.86
2017-04-27T13:22:48.735Z,3.00
2017-04-27T13:25:17.156Z,2.82
2017-04-27T13:27:44.752Z,2.92
2017-04-27T13:30:12.715Z,2.84
2017-04-27T13:32:40.288Z,2.50
2017-04-27T13:35:07.888Z,3.28
2017-04-27T13:37:35.521Z,2.08
2017-04-27T13:40:03.895Z,3.26
2017-04-27T13:42:31.560Z,2.88
2017-04-27T13:44:59.171Z,2.54
2017-04-27T13:47:27.498Z,2.94
2017-04-27T13:49:55.749Z,2.20
2017-04-27T13:52:23.368Z,2.54
2017-04-27T13:54:51.056Z,2.50
2017-04-27T13:57:18.651Z,2.42
2017-04-27T13:59:46.284Z,2.60
2017-04-27T14:02:13.852Z,2.84
2017-04-27T14:04:41.732Z,3.06
2017-04-27T14:07:09.340Z,2.56
2017-04-27T14:09:36.968Z,2.36
2017-04-27T14:12:04.606Z,2.56
2017-04-27T14:14:32.992Z,2.82
2017-04-27T14:17:00.623Z,2.40
2017-04-27T14:19:28.209Z,2.52
2017-04-27T14:21:55.800Z,2.54
2017-04-27T14:24:23.451Z,3.06
2017-04-27T14:26:51.067Z,2.94
2017-04-27T14:29:18.681Z,2.94
2017-04-27T14:31:46.288Z,3.28
2017-04-27T14:34:14.575Z,2.82
2017-04-27T14:36:42.214Z,2.78
2017-04-27T14:39:09.827Z,2.26
2017-04-27T14:41:38.136Z,2.50
2017-04-27T14:44:05.733Z,2.60
2017-04-27T14:46:33.335Z,2.62
2017-04-27T14:49:00.931Z,2.18
2017-04-27T14:51:29.228Z,2.96
2017-04-27T14:53:57.252Z,2.84
2017-04-27T14:56:24.839Z,2.74
2017-04-27T14:58:52.671Z,3.26
2017-04-27T15:01:20.256Z,2.64
2017-04-27T15:03:47.825Z,2.30
2017-04-27T15:06:16.208Z,2.38
2017-04-27T15:08:43.868Z,3.10
2017-04-27T15:11:12.081Z,3.26
2017-04-27T15:13:40.384Z,2.46
2017-04-27T15:16:08.005Z,2.40
2017-04-27T15:18:36.291Z,2.44
2017-04-27T15:21:03.829Z,1.94
2017-04-27T15:23:31.461Z,2.74
2017-04-27T15:25:59.088Z,1.72
2017-04-27T15:28:26.689Z,1.60
2017-04-27T15:30:54.312Z,1.68
2017-04-27T15:33:21.900Z,1.70
2017-04-27T15:35:49.480Z,1.80
2017-04-27T15:38:17.079Z,1.94
2017-04-27T15:40:44.681Z,1.96
2017-04-27T15:43:12.708Z,2.34
2017-04-27T15:45:40.376Z,1.68
2017-04-27T15:48:08.024Z,2.12
2017-04-27T15:50:35.670Z,1.80
2017-04-27T15:53:03.334Z,2.12
2017-04-27T15:55:30.935Z,1.86
2017-04-27T15:57:59.296Z,2.18
2017-04-27T16:00:26.911Z,1.80
2017-04-27T16:02:54.460Z,2.00
2017-04-27T16:05:22.044Z,2.08
2017-04-27T16:07:49.690Z,3.03
2017-04-27T16:10:17.369Z,2.63
2017-04-27T16:12:44.984Z,2.62
2017-04-27T16:15:13.525Z,2.03
2017-04-27T16:17:42.624Z,3.47
2017-04-27T16:20:10.221Z,9.77
2017-04-27T16:22:37.872Z,3.30
2017-04-27T16:25:05.560Z,3.43
2017-04-27T16:27:33.144Z,2.47
2017-04-27T16:30:00.812Z,2.37
2017-04-27T16:32:28.436Z,2.60
2017-04-27T16:34:56.088Z,2.25
2017-04-27T16:37:30.363Z,2.62
2017-04-27T16:39:58.001Z,2.22
2017-04-27T16:42:25.718Z,2.42
2017-04-27T16:44:54.036Z,2.37
2017-04-27T16:47:21.663Z,2.85
2017-04-27T16:49:49.277Z,2.22
2017-04-27T16:52:16.832Z,2.37
2017-04-27T16:54:44.431Z,2.60
2017-04-27T16:57:12.692Z,3.65
2017-04-27T16:59:40.325Z,3.40
2017-04-27T17:02:08.024Z,2.25
2017-04-27T17:04:36.340Z,2.83
2017-04-27T17:07:03.956Z,4.00
2017-04-27T17:09:31.715Z,3.15
2017-04-27T17:11:59.372Z,3.00
2017-04-27T17:14:26.961Z,2.95
2017-04-27T17:16:55.316Z,3.08
2017-04-27T17:19:23.681Z,2.97
2017-04-27T17:21:51.248Z,2.50
2017-04-27T17:24:18.842Z,2.95
2017-04-27T17:26:46.441Z,2.95
2017-04-27T17:29:14.060Z,2.38
2017-04-27T17:31:41.710Z,2.27
2017-04-27T17:34:10.085Z,1.92
2017-04-27T17:36:37.692Z,2.10
2017-04-27T17:39:06.065Z,2.62
2017-04-27T17:41:33.698Z,2.47
2017-04-27T17:44:01.188Z,3.42
2017-04-27T17:46:28.769Z,2.15
2017-04-27T17:48:56.363Z,2.43
2017-04-27T17:51:25.873Z,2.63
2017-04-27T17:53:53.492Z,2.05
2017-04-27T17:56:21.055Z,2.50
2017-04-27T17:58:48.616Z,2.40
2017-04-27T18:01:16.244Z,2.18
2017-04-27T18:03:43.896Z,2.33
2017-04-27T18:06:12.240Z,2.52
2017-04-27T18:08:39.869Z,2.67
2017-04-27T18:11:08.475Z,2.30
2017-04-27T18:13:36.146Z,2.28
2017-04-27T18:16:03.731Z,2.62
2017-04-27T18:18:32.100Z,2.33
2017-04-27T18:21:00.399Z,1.92
2017-04-27T18:23:27.992Z,2.18
2017-04-27T18:25:56.480Z,2.50
2017-04-27T18:28:24.168Z,2.38
2017-04-27T18:30:52.695Z,2.30
2017-04-27T18:33:20.425Z,2.33
2017-04-27T18:35:47.857Z,2.05
2017-04-27T18:38:15.744Z,2.03
2017-04-27T18:40:43.588Z,2.30
2017-04-27T18:43:12.332Z,2.05
2017-04-27T18:45:42.279Z,2.40
2017-04-27T18:48:12.526Z,2.80
2017-04-27T18:50:41.032Z,2.90
2017-04-27T18:53:09.959Z,2.50
2017-04-27T18:55:38.625Z,2.43
2017-04-27T18:58:07.629Z,2.52
2017-04-27T19:00:36.638Z,2.00
2017-04-27T19:03:05.317Z,2.52
2017-04-27T19:05:34.311Z,2.73
2017-04-27T19:08:03.303Z,2.68
2017-04-27T19:10:32.688Z,3.22
2017-04-27T19:13:01.568Z,2.93
2017-04-27T19:15:30.307Z,2.72
2017-04-27T19:18:00.364Z,3.00
2017-04-27T19:20:29.849Z,3.18
2017-04-27T19:22:59.512Z,3.18
2017-04-27T19:25:29.062Z,2.58
2017-04-27T19:27:58.470Z,3.23
2017-04-27T19:30:29.169Z,3.40
2017-04-27T19:32:59.419Z,3.32
2017-04-27T19:35:29.888Z,4.23
2017-04-27T19:37:59.317Z,3.42
2017-04-27T19:40:28.888Z,3.63
2017-04-27T19:42:58.865Z,3.70
2017-04-27T19:45:29.336Z,3.35
2017-04-27T19:47:58.838Z,4.15
2017-04-27T19:50:29.425Z,4.08
2017-04-27T19:52:59.646Z,4.03
2017-04-27T19:55:29.494Z,3.55
2017-04-27T19:58:00.178Z,3.37
2017-04-27T20:00:30.952Z,3.85
2017-04-27T20:03:01.432Z,3.92
2017-04-27T20:05:31.912Z,4.52
2017-04-27T20:08:01.424Z,4.23
2017-04-27T20:10:32.104Z,3.98
2017-04-27T20:13:02.267Z,3.95
2017-04-27T20:15:33.314Z,3.32
2017-04-27T20:18:02.720Z,4.07
2017-04-27T20:20:33.000Z,3.75
2017-04-27T20:23:03.513Z,4.37
2017-04-27T20:25:33.836Z,4.40
2017-04-27T20:28:03.033Z,3.70
2017-04-27T20:30:31.799Z,4.32
2017-04-27T20:33:00.161Z,3.83
2017-04-27T20:35:28.503Z,4.22
2017-04-27T20:37:57.335Z,4.17
2017-04-27T20:40:25.094Z,3.82
2017-04-27T20:42:52.831Z,4.88
2017-04-27T20:45:20.616Z,3.93
2017-04-27T20:47:48.271Z,4.53
2017-04-27T20:50:15.911Z,4.55
2017-04-27T20:52:43.576Z,4.80
2017-04-27T20:55:11.208Z,3.82
2017-04-27T20:57:38.841Z,3.37
2017-04-27T21:00:06.445Z,4.42
2017-04-27T21:02:34.078Z,4.07
2017-04-27T21:05:01.697Z,4.13
2017-04-27T21:07:30.105Z,4.05
2017-04-27T21:09:57.680Z,3.53
2017-04-27T21:12:25.354Z,3.22
2017-04-27T21:14:53.076Z,3.82
2017-04-27T21:17:20.723Z,3.57
2017-04-27T21:19:48.316Z,3.20
2017-04-27T21:22:15.936Z,3.57
2017-04-27T21:24:44.298Z,3.30
2017-04-27T21:27:13.444Z,2.48
2017-04-27T21:29:41.092Z,3.60
2017-04-27T21:32:08.776Z,2.97
2017-04-27T21:34:37.104Z,2.77
2017-04-27T21:37:04.744Z,2.80
2017-04-27T21:39:32.423Z,3.30
2017-04-27T21:42:00.130Z,2.82
2017-04-27T21:44:27.771Z,2.50
2017-04-27T21:46:55.364Z,2.62
2017-04-27T21:49:23.692Z,2.80
2017-04-27T21:51:51.313Z,2.60
2017-04-27T21:54:18.876Z,2.18
2017-04-27T21:56:46.569Z,2.87
2017-04-27T21:59:14.199Z,2.87
2017-04-27T22:01:42.816Z,2.23
2017-04-27T22:04:10.493Z,2.95
2017-04-27T22:06:38.120Z,2.78
2017-04-27T22:09:05.716Z,2.12
2017-04-27T22:11:34.132Z,2.23
2017-04-27T22:14:01.772Z,2.30
2017-04-27T22:16:30.001Z,2.38
2017-04-27T22:18:57.625Z,1.82
2017-04-27T22:21:26.004Z,2.68
2017-04-27T22:23:54.376Z,2.27
2017-04-27T22:26:22.003Z,2.52
2017-04-27T22:28:49.603Z,2.12
2017-04-27T22:31:17.224Z,2.10
2017-04-27T22:33:44.841Z,2.28
2017-04-27T22:36:13.576Z,1.87
2017-04-27T22:38:41.181Z,1.72
2017-04-27T22:41:08.781Z,1.85
2017-04-27T22:43:36.329Z,1.80
2017-04-27T22:46:03.876Z,2.05
2017-04-27T22:48:32.199Z,2.02
2017-04-27T22:50:59.861Z,2.17
2017-04-27T22:53:27.488Z,2.02
2017-04-27T22:55:55.095Z,2.18
2017-04-27T22:58:22.748Z,2.38
2017-04-27T23:00:50.364Z,2.10
2017-04-27T23:03:17.949Z,2.22
2017-04-27T23:05:45.564Z,2.08
2017-04-27T23:08:13.188Z,1.73
2017-04-27T23:10:40.798Z,2.83
2017-04-27T23:13:08.456Z,1.75
2017-04-27T23:15:36.096Z,2.03
2017-04-27T23:18:03.764Z,2.55
2017-04-27T23:20:31.382Z,1.78
2017-04-27T23:22:58.965Z,2.02
2017-04-27T23:25:27.368Z,2.43
2017-04-27T23:27:54.977Z,2.58
2017-04-27T23:30:23.335Z,1.83
2017-04-27T23:32:51.713Z,2.10
2017-04-27T23:35:19.379Z,2.63
2017-04-27T23:37:46.985Z,2.15
2017-04-27T23:40:14.587Z,2.72
2017-04-27T23:42:42.928Z,2.37
2017-04-27T23:45:10.528Z,2.52
2017-04-27T23:47:38.124Z,3.33
2017-04-27T23:50:05.748Z,2.78
2017-04-27T23:52:33.396Z,2.65
2017-04-27T23:55:00.996Z,2.98
2017-04-27T23:57:28.603Z,2.93
2017-04-27T23:59:56.179Z,2.77
